Time;durP1;ratioP1;P1;durP2;ratioP2;P2;SDS_P1;SDS_P2;PMS_P1;PMS_P2;Temp;Humidity;BMP_temperature;BMP_pressure;BME280_temperature;BME280_humidity;BME280_pressure;Samples;Min_cycle;Max_cycle;Signal;HPM_P1;HPM_P2
2021/09/26 00:00:23;;;;;;;;;;;;;;;;;;1022786;29;1030;-17
2021/09/26 00:00:54;;;;;;;;;;;;;;;;;;1022629;29;910;-17
2021/09/26 00:01:24;;;;;;;;;;;;;;;;;;1022166;29;1042;-18
2021/09/26 00:01:55;;;;;;;;;;;;;;;;;;1021739;29;1034;-17
2021/09/26 00:02:26;;;;;;;;;;;;;;;;;;1022054;29;1038;-19
2021/09/26 00:02:56;;;;;;;;;;;;;;;;;;1022174;28;911;-17
2021/09/26 00:03:26;;;;;;;;;;;;;;;;;;1026083;28;1087;-17
2021/09/26 00:03:57;;;;;;;;;;;;;;;;;;1022689;28;952;-17
2021/09/26 00:04:27;;;;;;;;;;;;;;;;;;1022445;28;1096;-16
2021/09/26 00:04:58;;;;;;;;;;;;;;;;;;1022748;28;890;-17
2021/09/26 00:05:29;;;;;;;;;;;;;;;;;;1022068;29;1085;-18
2021/09/26 00:06:00;;;;;;;;;;;;;;;;;;1025695;28;1123;-18
2021/09/26 00:06:30;;;;;;;;;;;;;;;;;;1021848;29;1093;-19
2021/09/26 00:07:01;;;;;;;;;;;;;;;;;;1021563;29;1384;-18
2021/09/26 00:07:32;;;;;;;;;;;;;;;;;;1018090;29;1061;-19
2021/09/26 00:08:03;;;;;;;;;;;;;;;;;;1025777;28;1453;-18
2021/09/26 00:08:34;;;;;;;;;;;;;;;;;;1025267;28;1199;-16
2021/09/26 00:09:04;;;;;;;;;;;;;;;;;;1025954;28;1052;-18
2021/09/26 00:09:34;;;;;;;;;;;;;;;;;;1026040;28;2011;-17
2021/09/26 00:10:06;;;;;;;;;;;;;;;;;;1022050;29;1101;-19
2021/09/26 00:10:36;;;;;;;;;;;;;;;;;;1022705;28;871;-18
2021/09/26 00:11:07;;;;;;;;;;;;;;;;;;1020187;28;2358;-17
2021/09/26 00:11:40;;;;;;;;;;;;;;;;;;1018582;29;895;-17
2021/09/26 00:12:11;;;;;;;;;;;;;;;;;;1019686;29;1416;-18
2021/09/26 00:12:42;;;;;;;;;;;;;;;;;;1022314;28;1268;-18
2021/09/26 00:13:13;;;;;;;;;;;;;;;;;;1025887;28;973;-17
2021/09/26 00:13:44;;;;;;;;;;;;;;;;;;1021957;29;1048;-18
2021/09/26 00:14:14;;;;;;;;;;;;;;;;;;1021674;29;1053;-17
2021/09/26 00:14:44;;;;;;;;;;;;;;;;;;1018122;29;1215;-17
2021/09/26 00:15:17;;;;;;;;;;;;;;;;;;1017996;29;1154;-17
2021/09/26 00:15:48;;;;;;;;;;;;;;;;;;1021756;28;1339;-17
2021/09/26 00:16:18;;;;;;;;;;;;;;;;;;1021958;29;1055;-17
2021/09/26 00:16:49;;;;;;;;;;;;;;;;;;1021916;28;1168;-17
2021/09/26 00:17:19;;;;;;;;;;;;;;;;;;1022098;29;927;-17
2021/09/26 00:17:50;;;;;;;;;;;;;;;;;;1025692;28;926;-18
2021/09/26 00:18:20;;;;;;;;;;;;;;;;;;1026157;28;942;-17
2021/09/26 00:18:51;;;;;;;;;;;;;;;;;;1025813;28;1116;-18
2021/09/26 00:19:21;;;;;;;;;;;;;;;;;;1026110;28;1017;-17
2021/09/26 00:19:52;;;;;;;;;;;;;;;;;;1022572;28;1174;-17
2021/09/26 00:20:23;;;;;;;;;;;;;;;;;;1022444;29;1382;-17
2021/09/26 00:20:54;;;;;;;;;;;;;;;;;;1021743;29;1018;-17
2021/09/26 00:21:24;;;;;;;;;;;;;;;;;;1022128;29;1409;-17
2021/09/26 00:21:54;;;;;;;;;;;;;;;;;;1021737;29;860;-17
2021/09/26 00:22:25;;;;;;;;;;;;;;;;;;1022211;29;953;-18
2021/09/26 00:22:56;;;;;;;;;;;;;;;;;;1022183;28;1299;-18
2021/09/26 00:23:26;;;;;;;;;;;;;;;;;;1022478;28;1161;-17
2021/09/26 00:23:57;;;;;;;;;;;;;;;;;;1022596;29;955;-17
2021/09/26 00:24:27;;;;;;;;;;;;;;;;;;1022385;28;1285;-17
2021/09/26 00:24:58;;;;;;;;;;;;;;;;;;1022301;29;646;-17
2021/09/26 00:25:30;;;;;;;;;;;;;;;;;;1022001;28;1525;-18
2021/09/26 00:26:02;;;;;;;;;;;;;;;;;;1017659;29;1137;-17
2021/09/26 00:26:32;;;;;;;;;;;;;;;;;;1022332;28;1342;-18
2021/09/26 00:27:03;;;;;;;;;;;;;;;;;;1021726;29;1283;-17
2021/09/26 00:27:34;;;;;;;;;;;;;;;;;;1021573;29;996;-17
2021/09/26 00:28:05;;;;;;;;;;;;;;;;;;1017878;29;1175;-17
2021/09/26 00:28:36;;;;;;;;;;;;;;;;;;1018128;29;963;-18
2021/09/26 00:29:06;;;;;;;;;;;;;;;;;;1022205;28;1016;-17
2021/09/26 00:29:37;;;;;;;;;;;;;;;;;;1025738;28;1972;-18
2021/09/26 00:30:08;;;;;;;;;;;;;;;;;;1022738;28;992;-18
2021/09/26 00:30:38;;;;;;;;;;;;;;;;;;1022430;28;1309;-17
2021/09/26 00:31:08;;;;;;;;;;;;;;;;;;1022697;29;962;-17
2021/09/26 00:31:39;;;;;;;;;;;;;;;;;;1018715;29;1161;-17
2021/09/26 00:32:10;;;;;;;;;;;;;;;;;;1021313;29;1662;-17
2021/09/26 00:32:41;;;;;;;;;;;;;;;;;;1021610;29;1182;-17
2021/09/26 00:33:11;;;;;;;;;;;;;;;;;;1021970;29;986;-16
2021/09/26 00:33:42;;;;;;;;;;;;;;;;;;1021453;29;1416;-18
2021/09/26 00:34:12;;;;;;;;;;;;;;;;;;1021726;29;1252;-18
2021/09/26 00:34:43;;;;;;;;;;;;;;;;;;1021838;29;1101;-17
2021/09/26 00:35:16;;;;;;;;;;;;;;;;;;1021636;29;890;-17
2021/09/26 00:35:47;;;;;;;;;;;;;;;;;;1022083;29;1046;-17
2021/09/26 00:36:18;;;;;;;;;;;;;;;;;;1023381;28;3596;-18
2021/09/26 00:36:48;;;;;;;;;;;;;;;;;;1025603;28;1430;-18
2021/09/26 00:37:20;;;;;;;;;;;;;;;;;;1025814;28;1629;-17
2021/09/26 00:37:50;;;;;;;;;;;;;;;;;;1025743;28;1147;-18
2021/09/26 00:38:22;;;;;;;;;;;;;;;;;;1020400;29;3381;-18
2021/09/26 00:38:52;;;;;;;;;;;;;;;;;;1017765;29;871;-17
2021/09/26 00:39:23;;;;;;;;;;;;;;;;;;1018116;29;1032;-19
2021/09/26 00:39:53;;;;;;;;;;;;;;;;;;1017994;29;927;-18
2021/09/26 00:40:23;;;;;;;;;;;;;;;;;;1018713;29;1125;-17
2021/09/26 00:40:54;;;;;;;;;;;;;;;;;;1018684;29;981;-17
2021/09/26 00:41:24;;;;;;;;;;;;;;;;;;1018567;28;1316;-17
2021/09/26 00:41:55;;;;;;;;;;;;;;;;;;1018836;29;989;-16
2021/09/26 00:42:25;;;;;;;;;;;;;;;;;;1018690;29;1153;-17
2021/09/26 00:42:56;;;;;;;;;;;;;;;;;;1018649;29;1078;-18
2021/09/26 00:43:28;;;;;;;;;;;;;;;;;;1018725;29;928;-17
2021/09/26 00:44:00;;;;;;;;;;;;;;;;;;1021857;29;1047;-18
2021/09/26 00:44:31;;;;;;;;;;;;;;;;;;1021939;29;931;-18
2021/09/26 00:45:03;;;;;;;;;;;;;;;;;;1021981;29;905;-17
2021/09/26 00:45:33;;;;;;;;;;;;;;;;;;1021302;29;1023;-17
2021/09/26 00:46:05;;;;;;;;;;;;;;;;;;1018453;29;1040;-18
2021/09/26 00:46:35;;;;;;;;;;;;;;;;;;1018753;29;803;-18
2021/09/26 00:47:06;;;;;;;;;;;;;;;;;;1019201;29;947;-18
2021/09/26 00:47:37;;;;;;;;;;;;;;;;;;1018953;29;1201;-18
2021/09/26 00:48:07;;;;;;;;;;;;;;;;;;1019385;29;814;-17
2021/09/26 00:48:38;;;;;;;;;;;;;;;;;;1022776;29;1044;-17
2021/09/26 00:49:08;;;;;;;;;;;;;;;;;;1018482;29;1271;-17
2021/09/26 00:49:38;;;;;;;;;;;;;;;;;;1018497;29;1981;-17
2021/09/26 00:50:09;;;;;;;;;;;;;;;;;;1018784;29;1083;-17
2021/09/26 00:50:41;;;;;;;;;;;;;;;;;;1018592;29;1028;-18
2021/09/26 00:51:12;;;;;;;;;;;;;;;;;;1023417;28;1373;-17
2021/09/26 00:51:43;;;;;;;;;;;;;;;;;;1018747;29;1205;-18
2021/09/26 00:52:14;;;;;;;;;;;;;;;;;;1018134;29;1396;-18
2021/09/26 00:52:45;;;;;;;;;;;;;;;;;;1018083;29;1193;-18
2021/09/26 00:53:20;;;;;;;;;;;;;;;;;;1015080;29;1264;-17
2021/09/26 00:53:50;;;;;;;;;;;;;;;;;;1020129;28;995;-17
2021/09/26 00:54:21;;;;;;;;;;;;;;;;;;1026570;28;898;-17
2021/09/26 00:54:51;;;;;;;;;;;;;;;;;;1026452;28;1555;-17
2021/09/26 00:55:22;;;;;;;;;;;;;;;;;;1026948;28;963;-17
2021/09/26 00:55:56;;;;;;;;;;;;;;;;;;1026628;28;1068;-17
2021/09/26 00:56:29;;;;;;;;;;;;;;;;;;1023487;28;997;-17
2021/09/26 00:56:59;;;;;;;;;;;;;;;;;;1023404;28;1006;-17
2021/09/26 00:57:29;;;;;;;;;;;;;;;;;;1022591;28;1437;-17
2021/09/26 00:58:00;;;;;;;;;;;;;;;;;;1026883;28;1079;-17
2021/09/26 00:58:31;;;;;;;;;;;;;;;;;;1030503;28;1072;-18
2021/09/26 00:59:02;;;;;;;;;;;;;;;;;;1030541;28;1021;-17
2021/09/26 00:59:32;;;;;;;;;;;;;;;;;;1026495;28;1147;-17
2021/09/26 01:00:03;;;;;;;;;;;;;;;;;;1022500;29;1401;-17
2021/09/26 01:00:34;;;;;;;;;;;;;;;;;;1022651;29;1129;-18
2021/09/26 01:01:04;;;;;;;;;;;;;;;;;;1022998;29;1059;-17
2021/09/26 01:01:34;;;;;;;;;;;;;;;;;;1023175;28;1085;-18
2021/09/26 01:02:05;;;;;;;;;;;;;;;;;;1023608;28;929;-17
2021/09/26 01:02:36;;;;;;;;;;;;;;;;;;1030513;28;1108;-18
2021/09/26 01:03:06;;;;;;;;;;;;;;;;;;1030643;28;1204;-17
2021/09/26 01:03:36;;;;;;;;;;;;;;;;;;1030388;28;1195;-17
2021/09/26 01:04:07;;;;;;;;;;;;;;;;;;1030670;28;1003;-16
2021/09/26 01:04:37;;;;;;;;;;;;;;;;;;1023431;28;918;-18
2021/09/26 01:05:09;;;;;;;;;;;;;;;;;;1023359;28;1175;-18
2021/09/26 01:05:40;;;;;;;;;;;;;;;;;;1023343;28;945;-18
2021/09/26 01:06:29;;;;;;;;;;;;;;;;;;1026585;28;1173;-17
2021/09/26 01:07:09;;;;;;;;;;;;;;;;;;1026627;28;962;-17
2021/09/26 01:07:56;;;;;;;;;;;;;;;;;;1026557;28;1014;-17
2021/09/26 01:08:29;;;;;;;;;;;;;;;;;;1021342;28;1446;-17
2021/09/26 01:09:15;;;;;;;;;;;;;;;;;;1019398;29;1143;-17
2021/09/26 01:09:45;;;;;;;;;;;;;;;;;;1018727;29;1910;-18
2021/09/26 01:10:31;;;;;;;;;;;;;;;;;;1019373;29;1235;-18
2021/09/26 01:11:07;;;;;;;;;;;;;;;;;;1019310;29;2350;-17
2021/09/26 01:11:40;;;;;;;;;;;;;;;;;;1019242;29;919;-17
2021/09/26 01:12:30;;;;;;;;;;;;;;;;;;1019476;29;641;-20
2021/09/26 01:13:04;;;;;;;;;;;;;;;;;;1019410;29;899;-18
2021/09/26 01:13:49;;;;;;;;;;;;;;;;;;1019262;29;960;-17
2021/09/26 01:14:20;;;;;;;;;;;;;;;;;;1019441;29;1013;-17
2021/09/26 01:14:56;;;;;;;;;;;;;;;;;;1019190;29;919;-17
2021/09/26 01:15:45;;;;;;;;;;;;;;;;;;1019427;29;946;-17
2021/09/26 01:16:24;;;;;;;;;;;;;;;;;;1019466;29;933;-17
2021/09/26 01:17:18;;;;;;;;;;;;;;;;;;1019602;29;1165;-18
2021/09/26 01:18:00;;;;;;;;;;;;;;;;;;1022255;29;1234;-18
2021/09/26 01:18:39;;;;;;;;;;;;;;;;;;1023138;28;1298;-17
2021/09/26 01:19:16;;;;;;;;;;;;;;;;;;1026510;28;1143;-17
2021/09/26 01:20:04;;;;;;;;;;;;;;;;;;1026420;28;1030;-18
2021/09/26 01:20:41;;;;;;;;;;;;;;;;;;1026733;28;1027;-17
2021/09/26 01:21:20;;;;;;;;;;;;;;;;;;1026543;28;1832;-17
2021/09/26 01:21:53;;;;;;;;;;;;;;;;;;1026471;28;2683;-17
2021/09/26 01:22:40;;;;;;;;;;;;;;;;;;1026711;28;1040;-17
2021/09/26 01:23:19;;;;;;;;;;;;;;;;;;1023256;28;1096;-20
2021/09/26 01:24:08;;;;;;;;;;;;;;;;;;1023140;29;1059;-20
2021/09/26 01:25:00;;;;;;;;;;;;;;;;;;1034106;28;1364;-17
2021/09/26 01:25:43;;;;;;;;;;;;;;;;;;1034752;28;996;-17
2021/09/26 01:26:21;;;;;;;;;;;;;;;;;;1034066;28;945;-18
2021/09/26 01:26:52;;;;;;;;;;;;;;;;;;1027248;28;768;-17
2021/09/26 01:27:28;;;;;;;;;;;;;;;;;;1027435;28;1133;-17
2021/09/26 01:28:18;;;;;;;;;;;;;;;;;;1019347;28;1027;-17
2021/09/26 01:28:58;;;;;;;;;;;;;;;;;;1019272;29;887;-17
2021/09/26 01:29:44;;;;;;;;;;;;;;;;;;1018858;29;855;-18
2021/09/26 01:30:33;;;;;;;;;;;;;;;;;;1022439;29;1534;-17
2021/09/26 01:31:06;;;;;;;;;;;;;;;;;;1023032;28;1393;-18
2021/09/26 01:31:39;;;;;;;;;;;;;;;;;;1026772;28;938;-17
2021/09/26 01:32:11;;;;;;;;;;;;;;;;;;1016058;29;1304;-17
2021/09/26 01:32:44;;;;;;;;;;;;;;;;;;1018566;29;1159;-18
2021/09/26 01:33:17;;;;;;;;;;;;;;;;;;1018547;29;863;-17
2021/09/26 01:34:06;;;;;;;;;;;;;;;;;;1019289;29;1225;-18
2021/09/26 01:34:39;;;;;;;;;;;;;;;;;;1023243;28;2451;-17
2021/09/26 01:35:11;;;;;;;;;;;;;;;;;;1022411;29;970;-20
2021/09/26 01:36:03;;;;;;;;;;;;;;;;;;1019714;29;1001;-17
2021/09/26 01:36:40;;;;;;;;;;;;;;;;;;1010261;29;957;-17
2021/09/26 01:37:29;;;;;;;;;;;;;;;;;;1014431;29;1054;-17
2021/09/26 01:38:04;;;;;;;;;;;;;;;;;;1018101;29;1390;-18
2021/09/26 01:38:38;;;;;;;;;;;;;;;;;;1016412;29;3641;-18
2021/09/26 01:39:35;;;;;;;;;;;;;;;;;;1026116;28;1143;-18
2021/09/26 01:40:21;;;;;;;;;;;;;;;;;;1024431;28;1346;-17
2021/09/26 01:40:56;;;;;;;;;;;;;;;;;;1025653;28;1326;-19
2021/09/26 01:41:50;;;;;;;;;;;;;;;;;;1018219;29;1763;-17
2021/09/26 01:42:25;;;;;;;;;;;;;;;;;;1026524;28;1509;-18
2021/09/26 01:42:57;;;;;;;;;;;;;;;;;;1026684;28;1103;-17
2021/09/26 01:43:34;;;;;;;;;;;;;;;;;;1026716;28;1375;-17
2021/09/26 01:44:13;;;;;;;;;;;;;;;;;;1026305;28;1167;-17
2021/09/26 01:45:00;;;;;;;;;;;;;;;;;;1026554;28;1482;-17
2021/09/26 01:45:40;;;;;;;;;;;;;;;;;;1026469;28;986;-17
2021/09/26 01:46:13;;;;;;;;;;;;;;;;;;1023297;28;893;-18
2021/09/26 01:46:48;;;;;;;;;;;;;;;;;;1023239;28;918;-17
2021/09/26 01:47:30;;;;;;;;;;;;;;;;;;1023239;28;890;-18
2021/09/26 01:48:10;;;;;;;;;;;;;;;;;;1026437;28;1044;-17
2021/09/26 01:48:48;;;;;;;;;;;;;;;;;;1026403;28;1601;-17
2021/09/26 01:49:26;;;;;;;;;;;;;;;;;;1026545;28;1041;-17
2021/09/26 01:49:58;;;;;;;;;;;;;;;;;;1023611;28;1976;-18
2021/09/26 01:50:30;;;;;;;;;;;;;;;;;;1023182;28;1222;-17
2021/09/26 01:51:01;;;;;;;;;;;;;;;;;;1023399;29;899;-17
2021/09/26 01:51:39;;;;;;;;;;;;;;;;;;1026003;28;1617;-18
2021/09/26 01:52:12;;;;;;;;;;;;;;;;;;1030363;28;1284;-18
2021/09/26 01:52:45;;;;;;;;;;;;;;;;;;1030417;28;1112;-17
2021/09/26 01:53:17;;;;;;;;;;;;;;;;;;1030488;28;945;-18
2021/09/26 01:53:49;;;;;;;;;;;;;;;;;;1022404;29;1568;-18
2021/09/26 01:54:20;;;;;;;;;;;;;;;;;;1018528;29;1028;-18
2021/09/26 01:54:50;;;;;;;;;;;;;;;;;;1018549;29;1061;-17
2021/09/26 01:55:25;;;;;;;;;;;;;;;;;;1011281;29;1388;-18
2021/09/26 01:55:56;;;;;;;;;;;;;;;;;;1018850;29;944;-17
2021/09/26 01:56:27;;;;;;;;;;;;;;;;;;1022552;29;1094;-17
2021/09/26 01:56:58;;;;;;;;;;;;;;;;;;1020860;29;1063;-17
2021/09/26 01:57:29;;;;;;;;;;;;;;;;;;1014853;29;1191;-17
2021/09/26 01:58:00;;;;;;;;;;;;;;;;;;1018227;29;1117;-17
2021/09/26 01:58:32;;;;;;;;;;;;;;;;;;1014442;29;1115;-17
2021/09/26 01:59:07;;;;;;;;;;;;;;;;;;1022504;29;970;-17
2021/09/26 01:59:38;;;;;;;;;;;;;;;;;;1014539;29;1002;-18
2021/09/26 02:00:10;;;;;;;;;;;;;;;;;;1021339;29;974;-18
2021/09/26 02:00:45;;;;;;;;;;;;;;;;;;1015503;29;962;-17
2021/09/26 02:01:16;;;;;;;;;;;;;;;;;;1012519;29;890;-17
2021/09/26 02:01:47;;;;;;;;;;;;;;;;;;1022148;29;1383;-17
2021/09/26 02:02:18;;;;;;;;;;;;;;;;;;1022136;29;1152;-17
2021/09/26 02:02:50;;;;;;;;;;;;;;;;;;1025868;28;1318;-17
2021/09/26 02:03:22;;;;;;;;;;;;;;;;;;1021634;29;1379;-16
2021/09/26 02:03:54;;;;;;;;;;;;;;;;;;1018159;29;1033;-18
2021/09/26 02:04:26;;;;;;;;;;;;;;;;;;1020178;29;1512;-17
2021/09/26 02:05:01;;;;;;;;;;;;;;;;;;1011237;29;1382;-17
2021/09/26 02:05:32;;;;;;;;;;;;;;;;;;1021387;29;1072;-17
2021/09/26 02:06:03;;;;;;;;;;;;;;;;;;1018212;29;1035;-17
2021/09/26 02:06:38;;;;;;;;;;;;;;;;;;1026416;28;1043;-18
2021/09/26 02:07:16;;;;;;;;;;;;;;;;;;1025586;28;1420;-17
2021/09/26 02:07:47;;;;;;;;;;;;;;;;;;1026025;28;1484;-17
2021/09/26 02:08:18;;;;;;;;;;;;;;;;;;1026564;28;1085;-17
2021/09/26 02:08:50;;;;;;;;;;;;;;;;;;1021746;29;1059;-18
2021/09/26 02:09:21;;;;;;;;;;;;;;;;;;1017958;29;1035;-17
2021/09/26 02:09:52;;;;;;;;;;;;;;;;;;1010209;29;1919;-17
2021/09/26 02:10:23;;;;;;;;;;;;;;;;;;1011338;29;1093;-17
2021/09/26 02:10:54;;;;;;;;;;;;;;;;;;1018295;29;2358;-17
2021/09/26 02:11:25;;;;;;;;;;;;;;;;;;1023026;29;1133;-18
2021/09/26 02:11:56;;;;;;;;;;;;;;;;;;1023324;29;934;-17
2021/09/26 02:12:28;;;;;;;;;;;;;;;;;;1022541;29;1409;-17
2021/09/26 02:12:59;;;;;;;;;;;;;;;;;;1022974;28;973;-17
2021/09/26 02:13:30;;;;;;;;;;;;;;;;;;1022185;29;1056;-17
2021/09/26 02:14:02;;;;;;;;;;;;;;;;;;1021868;29;1544;-17
2021/09/26 02:14:32;;;;;;;;;;;;;;;;;;1022321;29;1120;-17
2021/09/26 02:15:04;;;;;;;;;;;;;;;;;;1022407;28;1189;-18
2021/09/26 02:15:35;;;;;;;;;;;;;;;;;;1026368;28;1115;-17
2021/09/26 02:16:08;;;;;;;;;;;;;;;;;;1030182;28;1111;-17
2021/09/26 02:16:39;;;;;;;;;;;;;;;;;;1030154;28;1856;-17
2021/09/26 02:17:10;;;;;;;;;;;;;;;;;;1027518;28;1059;-18
2021/09/26 02:17:43;;;;;;;;;;;;;;;;;;1021689;29;1081;-18
2021/09/26 02:18:14;;;;;;;;;;;;;;;;;;1014766;29;1015;-17
2021/09/26 02:18:45;;;;;;;;;;;;;;;;;;1018309;29;992;-18
2021/09/26 02:19:16;;;;;;;;;;;;;;;;;;1018941;29;991;-18
2021/09/26 02:19:47;;;;;;;;;;;;;;;;;;1018380;29;1044;-17
2021/09/26 02:20:19;;;;;;;;;;;;;;;;;;1018481;29;1093;-18
2021/09/26 02:20:50;;;;;;;;;;;;;;;;;;1018177;29;872;-17
2021/09/26 02:21:20;;;;;;;;;;;;;;;;;;1018743;29;915;-17
2021/09/26 02:21:51;;;;;;;;;;;;;;;;;;1018245;29;1113;-17
2021/09/26 02:22:21;;;;;;;;;;;;;;;;;;1019181;29;883;-17
2021/09/26 02:22:52;;;;;;;;;;;;;;;;;;1022095;29;956;-19
2021/09/26 02:23:25;;;;;;;;;;;;;;;;;;1018172;29;1435;-17
2021/09/26 02:23:56;;;;;;;;;;;;;;;;;;1016581;29;1159;-19
2021/09/26 02:24:27;;;;;;;;;;;;;;;;;;1021741;28;1328;-18
2021/09/26 02:24:59;;;;;;;;;;;;;;;;;;1023030;28;1386;-18
2021/09/26 02:25:29;;;;;;;;;;;;;;;;;;1030392;28;997;-17
2021/09/26 02:26:01;;;;;;;;;;;;;;;;;;1029452;28;1330;-17
2021/09/26 02:26:33;;;;;;;;;;;;;;;;;;1025825;28;1329;-17
2021/09/26 02:27:04;;;;;;;;;;;;;;;;;;1026011;28;1316;-17
2021/09/26 02:27:35;;;;;;;;;;;;;;;;;;1026356;28;1028;-17
2021/09/26 02:28:07;;;;;;;;;;;;;;;;;;1034376;28;1022;-17
2021/09/26 02:28:39;;;;;;;;;;;;;;;;;;1034512;28;979;-17
2021/09/26 02:29:09;;;;;;;;;;;;;;;;;;1033973;28;1349;-17
2021/09/26 02:29:40;;;;;;;;;;;;;;;;;;1033633;28;1926;-18
2021/09/26 02:30:11;;;;;;;;;;;;;;;;;;1025837;28;1253;-18
2021/09/26 02:30:42;;;;;;;;;;;;;;;;;;1026536;28;1329;-17
2021/09/26 02:31:13;;;;;;;;;;;;;;;;;;1021663;28;2687;-17
2021/09/26 02:31:43;;;;;;;;;;;;;;;;;;1022300;28;1048;-17
2021/09/26 02:32:14;;;;;;;;;;;;;;;;;;1022064;29;891;-16
2021/09/26 02:32:46;;;;;;;;;;;;;;;;;;1021829;29;1477;-17
2021/09/26 02:33:16;;;;;;;;;;;;;;;;;;1022179;29;1383;-17
2021/09/26 02:33:47;;;;;;;;;;;;;;;;;;1022004;28;1275;-18
2021/09/26 02:34:18;;;;;;;;;;;;;;;;;;1018246;29;1044;-18
2021/09/26 02:34:48;;;;;;;;;;;;;;;;;;1022353;29;841;-18
2021/09/26 02:35:18;;;;;;;;;;;;;;;;;;1018380;29;1367;-18
2021/09/26 02:35:50;;;;;;;;;;;;;;;;;;1018331;29;954;-17
2021/09/26 02:36:21;;;;;;;;;;;;;;;;;;1022087;29;3525;-17
2021/09/26 02:36:51;;;;;;;;;;;;;;;;;;1023035;28;1516;-16
2021/09/26 02:37:22;;;;;;;;;;;;;;;;;;1023161;29;787;-18
2021/09/26 02:37:52;;;;;;;;;;;;;;;;;;1025615;28;1451;-17
2021/09/26 02:38:23;;;;;;;;;;;;;;;;;;1026276;28;3599;-17
2021/09/26 02:38:54;;;;;;;;;;;;;;;;;;1022013;29;1268;-17
2021/09/26 02:39:24;;;;;;;;;;;;;;;;;;1022284;29;1096;-17
2021/09/26 02:39:55;;;;;;;;;;;;;;;;;;1026152;28;1492;-17
2021/09/26 02:40:26;;;;;;;;;;;;;;;;;;1030026;28;1251;-17
2021/09/26 02:41:01;;;;;;;;;;;;;;;;;;1030335;28;983;-18
2021/09/26 02:41:38;;;;;;;;;;;;;;;;;;1029687;28;895;-18
2021/09/26 02:42:16;;;;;;;;;;;;;;;;;;1024560;28;1117;-18
2021/09/26 02:42:47;;;;;;;;;;;;;;;;;;1022479;29;1064;-17
2021/09/26 02:43:23;;;;;;;;;;;;;;;;;;1022326;29;1039;-17
2021/09/26 02:43:56;;;;;;;;;;;;;;;;;;1022486;29;922;-17
2021/09/26 02:44:38;;;;;;;;;;;;;;;;;;1022881;28;961;-17
2021/09/26 02:45:22;;;;;;;;;;;;;;;;;;1022503;28;1414;-17
2021/09/26 02:45:59;;;;;;;;;;;;;;;;;;1022949;28;1155;-17
2021/09/26 02:46:31;;;;;;;;;;;;;;;;;;1022849;28;884;-18
2021/09/26 02:47:05;;;;;;;;;;;;;;;;;;1030257;28;1136;-17
2021/09/26 02:48:02;;;;;;;;;;;;;;;;;;1030173;28;1437;-17
2021/09/26 02:48:32;;;;;;;;;;;;;;;;;;1022290;29;1126;-18
2021/09/26 02:49:04;;;;;;;;;;;;;;;;;;1018795;28;1438;-17
2021/09/26 02:49:35;;;;;;;;;;;;;;;;;;1030307;28;1232;-17
2021/09/26 02:50:06;;;;;;;;;;;;;;;;;;1030082;28;1980;-18
2021/09/26 02:50:38;;;;;;;;;;;;;;;;;;1022255;29;1546;-17
2021/09/26 02:51:09;;;;;;;;;;;;;;;;;;1021977;29;1539;-18
2021/09/26 02:51:41;;;;;;;;;;;;;;;;;;1017924;29;1463;-21
2021/09/26 02:52:12;;;;;;;;;;;;;;;;;;1015066;29;1010;-18
2021/09/26 02:52:44;;;;;;;;;;;;;;;;;;1018245;29;1098;-17
2021/09/26 02:53:15;;;;;;;;;;;;;;;;;;1018178;29;1140;-17
2021/09/26 02:53:46;;;;;;;;;;;;;;;;;;1022127;29;1180;-18
2021/09/26 02:54:16;;;;;;;;;;;;;;;;;;1022470;28;827;-17
2021/09/26 02:54:47;;;;;;;;;;;;;;;;;;1026336;28;946;-17
2021/09/26 02:55:17;;;;;;;;;;;;;;;;;;1022576;28;1402;-17
2021/09/26 02:55:50;;;;;;;;;;;;;;;;;;1018428;29;1142;-17
2021/09/26 02:56:21;;;;;;;;;;;;;;;;;;1018937;29;1089;-25
2021/09/26 02:56:52;;;;;;;;;;;;;;;;;;1017925;29;891;-17
2021/09/26 02:57:23;;;;;;;;;;;;;;;;;;1018940;29;920;-17
2021/09/26 02:57:54;;;;;;;;;;;;;;;;;;1022026;29;901;-16
2021/09/26 02:58:24;;;;;;;;;;;;;;;;;;1021804;29;1324;-18
2021/09/26 02:58:59;;;;;;;;;;;;;;;;;;1019033;29;986;-17
2021/09/26 02:59:30;;;;;;;;;;;;;;;;;;1018575;29;1452;-17
2021/09/26 03:00:01;;;;;;;;;;;;;;;;;;1018955;29;1135;-18
2021/09/26 03:00:36;;;;;;;;;;;;;;;;;;1022067;29;959;-17
2021/09/26 03:01:07;;;;;;;;;;;;;;;;;;1024263;28;1511;-18
2021/09/26 03:01:48;;;;;;;;;;;;;;;;;;1018345;29;1192;-17
2021/09/26 03:02:25;;;;;;;;;;;;;;;;;;1018095;29;1402;-18
2021/09/26 03:03:05;;;;;;;;;;;;;;;;;;1018390;29;1013;-18
2021/09/26 03:03:36;;;;;;;;;;;;;;;;;;1025298;28;964;-18
2021/09/26 03:04:07;;;;;;;;;;;;;;;;;;1018034;29;1077;-17
2021/09/26 03:04:41;;;;;;;;;;;;;;;;;;1018211;29;1108;-17
2021/09/26 03:05:12;;;;;;;;;;;;;;;;;;1017996;29;956;-17
2021/09/26 03:05:43;;;;;;;;;;;;;;;;;;1019207;28;772;-18
2021/09/26 03:06:14;;;;;;;;;;;;;;;;;;1022865;28;1013;-17
2021/09/26 03:06:44;;;;;;;;;;;;;;;;;;1026128;28;1433;-18
2021/09/26 03:07:14;;;;;;;;;;;;;;;;;;1026134;28;1180;-18
2021/09/26 03:07:47;;;;;;;;;;;;;;;;;;1026283;28;1100;-18
2021/09/26 03:08:18;;;;;;;;;;;;;;;;;;1026084;28;803;-17
2021/09/26 03:08:49;;;;;;;;;;;;;;;;;;1025903;28;1159;-17
2021/09/26 03:09:19;;;;;;;;;;;;;;;;;;1026193;28;1032;-17
2021/09/26 03:09:49;;;;;;;;;;;;;;;;;;1025707;28;1910;-18
2021/09/26 03:10:20;;;;;;;;;;;;;;;;;;1029835;28;965;-18
2021/09/26 03:10:54;;;;;;;;;;;;;;;;;;1026171;28;994;-17
2021/09/26 03:11:24;;;;;;;;;;;;;;;;;;1021954;29;992;-18
2021/09/26 03:11:55;;;;;;;;;;;;;;;;;;1021788;29;1091;-18
2021/09/26 03:12:26;;;;;;;;;;;;;;;;;;1022012;29;955;-17
2021/09/26 03:12:56;;;;;;;;;;;;;;;;;;1021999;29;1276;-17
2021/09/26 03:13:28;;;;;;;;;;;;;;;;;;1017902;29;1063;-17
2021/09/26 03:13:58;;;;;;;;;;;;;;;;;;1018358;29;879;-18
2021/09/26 03:14:28;;;;;;;;;;;;;;;;;;1018078;29;1031;-18
2021/09/26 03:15:00;;;;;;;;;;;;;;;;;;1026220;28;1065;-17
2021/09/26 03:15:31;;;;;;;;;;;;;;;;;;1021862;29;1024;-18
2021/09/26 03:16:01;;;;;;;;;;;;;;;;;;1018123;29;1105;-17
2021/09/26 03:16:32;;;;;;;;;;;;;;;;;;1017991;29;1049;-17
2021/09/26 03:17:02;;;;;;;;;;;;;;;;;;1014379;29;1212;-17
2021/09/26 03:17:33;;;;;;;;;;;;;;;;;;1018087;28;1022;-17
2021/09/26 03:18:04;;;;;;;;;;;;;;;;;;1026253;28;1411;-18
2021/09/26 03:18:34;;;;;;;;;;;;;;;;;;1026135;28;1053;-18
2021/09/26 03:19:05;;;;;;;;;;;;;;;;;;1026154;28;1100;-18
2021/09/26 03:19:36;;;;;;;;;;;;;;;;;;1021633;29;1438;-18
2021/09/26 03:20:07;;;;;;;;;;;;;;;;;;1017825;29;1108;-18
2021/09/26 03:20:37;;;;;;;;;;;;;;;;;;1018228;29;1129;-18
2021/09/26 03:21:08;;;;;;;;;;;;;;;;;;1018118;29;1161;-17
2021/09/26 03:21:38;;;;;;;;;;;;;;;;;;1014360;29;951;-17
2021/09/26 03:22:08;;;;;;;;;;;;;;;;;;1018855;29;884;-17
2021/09/26 03:22:39;;;;;;;;;;;;;;;;;;1018875;29;1058;-17
2021/09/26 03:23:10;;;;;;;;;;;;;;;;;;1026281;28;1133;-17
2021/09/26 03:23:41;;;;;;;;;;;;;;;;;;1021691;29;1265;-17
2021/09/26 03:24:11;;;;;;;;;;;;;;;;;;1021945;29;1233;-17
2021/09/26 03:24:42;;;;;;;;;;;;;;;;;;1017811;29;1457;-18
2021/09/26 03:25:13;;;;;;;;;;;;;;;;;;1018290;29;1225;-18
2021/09/26 03:25:43;;;;;;;;;;;;;;;;;;1018194;29;941;-17
2021/09/26 03:26:13;;;;;;;;;;;;;;;;;;1017639;29;1249;-17
2021/09/26 03:26:44;;;;;;;;;;;;;;;;;;1018272;29;1226;-17
2021/09/26 03:27:14;;;;;;;;;;;;;;;;;;1018158;29;2453;-17
2021/09/26 03:27:45;;;;;;;;;;;;;;;;;;1025923;28;1135;-18
2021/09/26 03:28:16;;;;;;;;;;;;;;;;;;1029980;28;1132;-17
2021/09/26 03:28:47;;;;;;;;;;;;;;;;;;1025986;28;1132;-18
2021/09/26 03:29:17;;;;;;;;;;;;;;;;;;1025933;28;1038;-17
2021/09/26 03:29:47;;;;;;;;;;;;;;;;;;1022276;29;1981;-18
2021/09/26 03:30:18;;;;;;;;;;;;;;;;;;1017910;29;1302;-17
2021/09/26 03:30:48;;;;;;;;;;;;;;;;;;1022806;29;911;-17
2021/09/26 03:31:20;;;;;;;;;;;;;;;;;;1022942;28;929;-17
2021/09/26 03:31:50;;;;;;;;;;;;;;;;;;1025945;28;1175;-17
2021/09/26 03:32:20;;;;;;;;;;;;;;;;;;1026171;28;1138;-17
2021/09/26 03:32:51;;;;;;;;;;;;;;;;;;1025484;28;1359;-18
2021/09/26 03:33:22;;;;;;;;;;;;;;;;;;1026218;28;1154;-17
2021/09/26 03:33:57;;;;;;;;;;;;;;;;;;1026060;28;885;-17
2021/09/26 03:34:27;;;;;;;;;;;;;;;;;;1025808;28;971;-18
2021/09/26 03:34:58;;;;;;;;;;;;;;;;;;1025804;28;1186;-17
2021/09/26 03:35:29;;;;;;;;;;;;;;;;;;1022394;28;1296;-19
2021/09/26 03:36:00;;;;;;;;;;;;;;;;;;1022406;28;3525;-17
2021/09/26 03:36:31;;;;;;;;;;;;;;;;;;1025862;28;1214;-18
2021/09/26 03:37:02;;;;;;;;;;;;;;;;;;1022121;29;1154;-17
2021/09/26 03:37:32;;;;;;;;;;;;;;;;;;1021948;29;1009;-17
2021/09/26 03:38:03;;;;;;;;;;;;;;;;;;1021940;29;985;-18
2021/09/26 03:38:34;;;;;;;;;;;;;;;;;;1019958;29;3569;-17
2021/09/26 03:39:04;;;;;;;;;;;;;;;;;;1022881;28;943;-18
2021/09/26 03:39:36;;;;;;;;;;;;;;;;;;1029924;28;1016;-18
2021/09/26 03:40:07;;;;;;;;;;;;;;;;;;1025936;28;1085;-17
2021/09/26 03:40:37;;;;;;;;;;;;;;;;;;1026100;28;1008;-18
2021/09/26 03:41:08;;;;;;;;;;;;;;;;;;1025839;28;919;-17
2021/09/26 03:41:38;;;;;;;;;;;;;;;;;;1018252;29;1096;-18
2021/09/26 03:42:09;;;;;;;;;;;;;;;;;;1022669;28;1032;-18
2021/09/26 03:42:40;;;;;;;;;;;;;;;;;;1026045;28;1336;-17
2021/09/26 03:43:10;;;;;;;;;;;;;;;;;;1021760;29;1444;-17
2021/09/26 03:43:41;;;;;;;;;;;;;;;;;;1021819;29;1168;-17
2021/09/26 03:44:12;;;;;;;;;;;;;;;;;;1021904;29;1179;-17
2021/09/26 03:44:42;;;;;;;;;;;;;;;;;;1021754;29;1275;-17
2021/09/26 03:45:13;;;;;;;;;;;;;;;;;;1025861;28;1187;-18
2021/09/26 03:45:49;;;;;;;;;;;;;;;;;;1026099;28;988;-17
2021/09/26 03:46:20;;;;;;;;;;;;;;;;;;1026146;28;869;-18
2021/09/26 03:46:51;;;;;;;;;;;;;;;;;;1025915;28;835;-17
2021/09/26 03:47:22;;;;;;;;;;;;;;;;;;1025765;28;1440;-17
2021/09/26 03:47:52;;;;;;;;;;;;;;;;;;1021824;29;1027;-17
2021/09/26 03:48:23;;;;;;;;;;;;;;;;;;1022274;29;1131;-18
2021/09/26 03:48:53;;;;;;;;;;;;;;;;;;1021530;29;1103;-18